createdAt,value
2022-09-11T00:00:57.672Z,2.13
2022-09-11T00:05:42.361Z,2.37
2022-09-11T00:10:28.311Z,2.10
2022-09-11T00:15:12.251Z,2.17
2022-09-11T00:19:55.593Z,2.73
2022-09-11T00:24:39.118Z,2.30
2022-09-11T00:29:23.947Z,2.20
2022-09-11T00:34:08.193Z,2.50
2022-09-11T00:38:51.906Z,2.93
2022-09-11T00:43:52.967Z,2.77
2022-09-11T00:48:38.618Z,2.83
2022-09-11T00:53:24.692Z,1.57
2022-09-11T00:58:13.666Z,1.50
2022-09-11T01:02:58.289Z,1.50
2022-09-11T01:07:44.396Z,1.23
2022-09-11T01:12:36.653Z,1.03
2022-09-11T01:17:28.354Z,1.30
2022-09-11T01:22:44.154Z,1.30
2022-09-11T01:27:41.835Z,1.70
2022-09-11T01:32:32.552Z,0.90
2022-09-11T01:37:24.780Z,0.80
2022-09-11T01:42:14.920Z,1.13
2022-09-11T01:47:00.501Z,0.80
2022-09-11T01:51:43.865Z,0.90
2022-09-11T01:56:32.023Z,1.10
2022-09-11T02:01:20.867Z,1.10
2022-09-11T02:06:09.189Z,1.10
2022-09-11T02:10:56.682Z,0.87
2022-09-11T02:15:44.212Z,1.00
2022-09-11T02:20:28.530Z,1.03
2022-09-11T02:25:13.903Z,1.07
2022-09-11T02:29:58.273Z,1.13
2022-09-11T02:34:45.519Z,1.40
2022-09-11T02:39:48.206Z,1.40
2022-09-11T02:44:39.017Z,1.30
2022-09-11T02:49:27.381Z,1.23
2022-09-11T02:54:20.951Z,1.40
2022-09-11T02:59:09.949Z,1.70
2022-09-11T03:03:54.768Z,1.53
2022-09-11T03:08:38.146Z,1.63
2022-09-11T03:13:21.537Z,1.73
2022-09-11T03:18:05.480Z,1.30
2022-09-11T03:22:50.309Z,1.47
2022-09-11T03:27:33.881Z,1.30
2022-09-11T03:32:17.448Z,1.10
2022-09-11T03:37:01.213Z,0.93
2022-09-11T03:41:46.033Z,1.00
2022-09-11T03:46:29.391Z,1.10
2022-09-11T03:51:12.814Z,1.50
2022-09-11T03:55:56.174Z,1.13
2022-09-11T04:00:44.347Z,1.10
2022-09-11T04:05:28.251Z,1.00
2022-09-11T04:10:11.994Z,1.20
2022-09-11T04:14:55.370Z,0.90
2022-09-11T04:19:40.132Z,1.20
2022-09-11T04:24:23.492Z,1.10
2022-09-11T04:29:06.813Z,0.83
2022-09-11T04:33:50.489Z,1.20
2022-09-11T04:38:35.723Z,0.90
2022-09-11T04:43:19.112Z,0.87
2022-09-11T04:48:02.662Z,1.47
2022-09-11T04:52:46.852Z,0.80
2022-09-11T04:57:32.521Z,1.03
2022-09-11T05:02:16.588Z,0.90
2022-09-11T05:07:00.046Z,0.80
2022-09-11T05:11:43.676Z,0.93
2022-09-11T05:16:29.729Z,0.90
2022-09-11T05:21:14.908Z,0.90
2022-09-11T05:25:59.336Z,0.70
2022-09-11T05:30:42.770Z,0.73
2022-09-11T05:35:32.078Z,0.97
2022-09-11T05:40:15.903Z,1.20
2022-09-11T05:44:59.295Z,1.00
2022-09-11T05:49:42.664Z,0.83
2022-09-11T05:54:27.532Z,0.97
2022-09-11T05:59:15.498Z,0.70
2022-09-11T06:03:58.987Z,0.70
2022-09-11T06:08:44.313Z,0.80
2022-09-11T06:13:31.929Z,0.70
2022-09-11T06:18:15.638Z,0.50
2022-09-11T06:22:59.770Z,0.70
2022-09-11T06:27:43.148Z,0.60
2022-09-11T06:32:28.097Z,0.60
2022-09-11T06:37:12.191Z,0.70
2022-09-11T06:41:55.573Z,0.63
2022-09-11T06:46:40.408Z,0.70
2022-09-11T06:51:25.301Z,1.20
2022-09-11T06:56:12.411Z,0.70
2022-09-11T07:00:56.051Z,1.10
2022-09-11T07:05:39.540Z,1.20
2022-09-11T07:10:24.865Z,0.80
2022-09-11T07:15:10.110Z,0.90
2022-09-11T07:19:53.638Z,0.80
2022-09-11T07:24:37.052Z,0.60
2022-09-11T07:29:22.521Z,0.60
2022-09-11T07:34:06.822Z,0.70
2022-09-11T07:38:51.575Z,0.80
2022-09-11T07:43:35.283Z,0.90
2022-09-11T07:48:20.064Z,0.80
2022-09-11T07:53:03.457Z,1.00
2022-09-11T07:57:47.373Z,1.00
2022-09-11T08:02:30.811Z,1.53
2022-09-11T08:07:17.353Z,1.03
2022-09-11T08:12:01.613Z,1.80
2022-09-11T08:16:46.095Z,0.80
2022-09-11T08:21:29.972Z,1.20
2022-09-11T08:26:17.446Z,1.00
2022-09-11T08:31:02.053Z,1.03
2022-09-11T08:35:45.591Z,0.80
2022-09-11T08:40:30.660Z,1.27
2022-09-11T08:45:19.775Z,0.80
2022-09-11T08:50:07.298Z,0.70
2022-09-11T08:54:50.808Z,0.90
2022-09-11T08:59:50.633Z,1.13
2022-09-11T09:04:59.507Z,0.60
2022-09-11T09:09:56.244Z,0.97
2022-09-11T09:14:56.857Z,0.90
2022-09-11T09:19:45.353Z,0.70
2022-09-11T09:24:35.737Z,0.40
2022-09-11T09:29:22.956Z,0.60
2022-09-11T09:34:09.970Z,0.50
2022-09-11T09:38:54.278Z,0.60
2022-09-11T09:43:48.857Z,0.88
2022-09-11T09:48:35.746Z,0.70
2022-09-11T09:53:28.675Z,0.65
2022-09-11T09:58:12.164Z,0.90
2022-09-11T10:02:58.812Z,0.80
2022-09-11T10:07:48.573Z,0.80
2022-09-11T10:12:32.323Z,0.60
2022-09-11T10:17:24.646Z,1.00
2022-09-11T10:22:30.614Z,1.03
2022-09-11T10:27:17.638Z,1.23
2022-09-11T10:32:04.192Z,1.30
2022-09-11T10:36:55.183Z,1.10
2022-09-11T10:41:50.003Z,1.20
2022-09-11T10:46:39.536Z,1.13
2022-09-11T10:51:24.051Z,0.93
2022-09-11T10:56:10.138Z,1.20
2022-09-11T11:00:55.023Z,1.30
2022-09-11T11:05:51.876Z,0.80
2022-09-11T11:10:45.188Z,1.00
2022-09-11T11:15:38.945Z,0.90
2022-09-11T11:20:33.944Z,0.90
2022-09-11T11:25:23.126Z,1.17
2022-09-11T11:30:17.450Z,0.80
2022-09-11T11:35:15.732Z,0.70
2022-09-11T11:40:06.341Z,1.00
2022-09-11T11:44:53.396Z,0.52
2022-09-11T11:49:50.476Z,0.80
2022-09-11T11:54:41.340Z,0.40
2022-09-11T11:59:32.241Z,0.70
2022-09-11T12:04:25.551Z,0.60
2022-09-11T12:09:10.984Z,0.60
2022-09-11T12:13:56.393Z,0.50
2022-09-11T12:18:42.445Z,0.60
2022-09-11T12:23:36.437Z,0.60
2022-09-11T12:28:25.457Z,0.50
2022-09-11T12:33:47.432Z,0.63
2022-09-11T12:38:38.239Z,0.60
2022-09-11T12:43:49.528Z,0.70
2022-09-11T12:48:38.900Z,0.50
2022-09-11T12:53:26.515Z,0.40
2022-09-11T12:58:36.525Z,0.60
2022-09-11T13:03:23.074Z,0.60
2022-09-11T13:08:11.136Z,0.50
2022-09-11T13:12:56.138Z,0.50
2022-09-11T13:17:48.423Z,0.40
2022-09-11T13:22:32.051Z,0.40
2022-09-11T13:27:24.122Z,0.30
2022-09-11T13:32:11.660Z,0.50
2022-09-11T13:36:58.791Z,0.30
2022-09-11T13:41:45.147Z,0.47
2022-09-11T13:46:30.660Z,0.22
2022-09-11T13:51:15.046Z,0.25
2022-09-11T13:55:59.989Z,0.50
2022-09-11T14:00:46.094Z,0.40
2022-09-11T14:05:32.055Z,0.50
2022-09-11T14:10:26.968Z,0.40
2022-09-11T14:15:22.619Z,0.30
2022-09-11T14:20:06.772Z,0.60
2022-09-11T14:24:58.091Z,0.50
2022-09-11T14:29:41.603Z,0.30
2022-09-11T14:34:28.689Z,0.50
2022-09-11T14:39:15.833Z,0.50
2022-09-11T14:43:59.321Z,0.50
2022-09-11T14:48:44.217Z,0.73
2022-09-11T14:53:34.503Z,0.60
2022-09-11T14:58:18.005Z,0.60
2022-09-11T15:03:01.585Z,0.35
2022-09-11T15:07:45.667Z,0.60
2022-09-11T15:12:30.469Z,0.32
2022-09-11T15:17:16.030Z,0.57
2022-09-11T15:22:00.005Z,0.40
2022-09-11T15:26:43.410Z,0.30
2022-09-11T15:31:29.338Z,0.40
2022-09-11T15:36:14.343Z,0.40
2022-09-11T15:40:58.398Z,0.50
2022-09-11T15:45:44.526Z,0.40
2022-09-11T15:50:30.434Z,0.52
2022-09-11T15:55:14.391Z,0.60
2022-09-11T15:59:57.966Z,0.50
2022-09-11T16:04:41.377Z,0.50
2022-09-11T16:09:28.372Z,0.50
2022-09-11T16:14:19.062Z,0.95
2022-09-11T16:19:03.426Z,0.50
2022-09-11T16:23:53.613Z,0.65
2022-09-11T16:28:41.871Z,0.40
2022-09-11T16:33:25.301Z,0.35
2022-09-11T16:38:09.307Z,0.40
2022-09-11T16:42:52.737Z,0.60
2022-09-11T16:47:37.564Z,0.38
2022-09-11T16:52:21.208Z,0.50
2022-09-11T16:57:04.946Z,0.30
2022-09-11T17:01:48.617Z,0.50
2022-09-11T17:06:34.044Z,0.77
2022-09-11T17:11:19.585Z,0.38
2022-09-11T17:16:04.086Z,0.50
2022-09-11T17:20:47.677Z,0.50
2022-09-11T17:25:33.126Z,0.50
2022-09-11T17:30:16.995Z,0.60
2022-09-11T17:35:00.518Z,0.63
2022-09-11T17:39:44.278Z,0.80
2022-09-11T17:44:29.296Z,0.70
2022-09-11T17:49:12.990Z,0.70
2022-09-11T17:53:59.118Z,0.80
2022-09-11T17:58:44.422Z,0.87
2022-09-11T18:03:31.483Z,1.30
2022-09-11T18:08:15.193Z,1.20
2022-09-11T18:13:06.837Z,1.00
2022-09-11T18:17:50.724Z,1.03
2022-09-11T18:22:41.995Z,1.00
2022-09-11T18:27:26.446Z,0.90
2022-09-11T18:32:12.893Z,0.90
2022-09-11T18:36:57.090Z,1.10
2022-09-11T18:41:43.875Z,1.20
2022-09-11T18:46:28.461Z,1.50
2022-09-11T18:51:13.112Z,1.17
2022-09-11T18:56:04.038Z,1.10
2022-09-11T19:00:49.552Z,1.17
2022-09-11T19:05:33.850Z,1.20
2022-09-11T19:10:17.491Z,1.20
2022-09-11T19:15:01.252Z,1.43
2022-09-11T19:19:46.910Z,1.40
2022-09-11T19:24:30.872Z,1.50
2022-09-11T19:29:16.013Z,1.67
2022-09-11T19:34:01.876Z,2.00
2022-09-11T19:38:49.942Z,1.93
2022-09-11T19:43:35.459Z,1.80
2022-09-11T19:48:19.324Z,1.63
2022-09-11T19:53:03.219Z,1.70
2022-09-11T19:57:48.261Z,1.67
2022-09-11T20:02:31.892Z,1.60
2022-09-11T20:07:15.464Z,1.67
2022-09-11T20:12:00.748Z,2.03
2022-09-11T20:16:46.094Z,2.13
2022-09-11T20:21:29.919Z,1.87
2022-09-11T20:26:17.246Z,1.93
2022-09-11T20:31:01.073Z,1.80
2022-09-11T20:35:46.724Z,2.50
2022-09-11T20:40:30.120Z,2.07
2022-09-11T20:45:13.691Z,1.67
2022-09-11T20:49:57.093Z,1.70
2022-09-11T20:54:41.939Z,1.40
2022-09-11T20:59:25.359Z,1.43
2022-09-11T21:04:08.760Z,1.20
2022-09-11T21:08:52.732Z,1.10
2022-09-11T21:13:40.075Z,1.70
2022-09-11T21:18:29.362Z,1.30
2022-09-11T21:23:19.408Z,1.17
2022-09-11T21:28:03.683Z,1.23
2022-09-11T21:32:49.038Z,1.23
2022-09-11T21:37:33.668Z,1.30
2022-09-11T21:42:18.432Z,1.30
2022-09-11T21:47:01.894Z,1.20
2022-09-11T21:51:46.942Z,1.20
2022-09-11T21:56:32.433Z,1.30
2022-09-11T22:01:15.946Z,1.10
2022-09-11T22:05:59.483Z,1.00
2022-09-11T22:10:45.385Z,1.47
2022-09-11T22:15:28.752Z,1.60
2022-09-11T22:20:12.239Z,1.70
2022-09-11T22:24:55.756Z,1.87
2022-09-11T22:29:44.005Z,1.73
2022-09-11T22:34:30.371Z,1.23
2022-09-11T22:39:13.831Z,1.03
2022-09-11T22:43:57.275Z,1.03
2022-09-11T22:48:42.309Z,1.50
2022-09-11T22:53:25.922Z,1.40
2022-09-11T22:58:09.267Z,1.30
2022-09-11T23:02:52.622Z,1.50
2022-09-11T23:07:38.704Z,1.30
2022-09-11T23:12:22.099Z,1.20
2022-09-11T23:17:05.612Z,1.03
2022-09-11T23:21:49.164Z,1.10
2022-09-11T23:26:34.426Z,1.50
2022-09-11T23:31:20.433Z,1.57
2022-09-11T23:36:06.584Z,1.60
2022-09-11T23:40:50.018Z,1.60
2022-09-11T23:45:34.843Z,1.00
2022-09-11T23:50:18.421Z,1.50
2022-09-11T23:55:02.458Z,1.47
2022-09-11T23:59:45.808Z,2.40
